Time;durP1;ratioP1;P1;durP2;ratioP2;P2;SDS_P1;SDS_P2;PMS_P1;PMS_P2;Temp;Humidity;BMP_temperature;BMP_pressure;BME280_temperature;BME280_humidity;BME280_pressure;Samples;Min_cycle;Max_cycle;Signal;HPM_P1;HPM_P2
2022/10/24 00:01:50;;;;;;;;;;;18.60;64.30;;;;;;5035992;28;20284;-87
2022/10/24 00:04:15;;;;;;;;;;;18.60;64.30;;;;;;5030779;28;19914;-88
2022/10/24 00:06:41;;;;;;;;;;;18.50;64.40;;;;;;5033100;28;19925;-88
2022/10/24 00:09:07;;;;;;;;;;;18.50;64.30;;;;;;5032754;28;19910;-87
2022/10/24 00:11:32;;;;;;;;;;;18.40;64.30;;;;;;5031886;28;19925;-88
2022/10/24 00:13:58;;;;;;;;;;;18.40;64.20;;;;;;5032513;28;19913;-87
2022/10/24 00:16:24;;;;;;;;;;;18.40;64.30;;;;;;5031742;28;19925;-88
2022/10/24 00:18:50;;;;;;;;;;;18.30;64.40;;;;;;5033002;28;19916;-89
2022/10/24 00:21:16;;;;;;;;;;;18.30;64.40;;;;;;5031954;28;19917;-90
2022/10/24 00:23:41;;;;;;;;;;;18.30;64.40;;;;;;5034698;28;19916;-89
2022/10/24 00:26:07;;;;;;;;;;;18.20;64.40;;;;;;5032194;28;19932;-89
2022/10/24 00:28:33;;;;;;;;;;;18.20;64.40;;;;;;5033433;28;19913;-87
2022/10/24 00:30:59;;;;;;;;;;;18.20;64.40;;;;;;5032956;28;19925;-89
2022/10/24 00:33:25;;;;;;;;;;;18.10;64.40;;;;;;5031569;28;19962;-90
2022/10/24 00:35:51;;;;;;;;;;;18.10;64.40;;;;;;5033384;28;19917;-90
2022/10/24 00:38:16;;;;;;;;;;;18.00;64.30;;;;;;5035473;28;20259;-88
2022/10/24 00:40:42;;;;;;;;;;;18.00;64.50;;;;;;5031549;28;19920;-88
2022/10/24 00:43:16;;;;;;;;;;;18.00;64.80;;;;;;5032898;28;19909;-88
2022/10/24 00:45:49;;;;;;;;;;;18.00;65.20;;;;;;5031555;28;19925;-88
2022/10/24 00:48:32;;;;;;;;;;;18.00;65.60;;;;;;5029381;28;20288;-90
2022/10/24 00:51:00;;;;;;;;;;;18.10;66.20;;;;;;5024076;28;19924;-86
2022/10/24 00:53:26;;;;;;;;;;;18.20;66.40;;;;;;5029333;28;19917;-90
2022/10/24 00:55:53;;;;;;;;;;;18.30;66.70;;;;;;5029613;28;19925;-86
2022/10/24 00:58:20;;;;;;;;;;;18.40;66.80;;;;;;5033000;28;19943;-88
2022/10/24 01:00:47;;;;;;;;;;;18.50;66.60;;;;;;5028092;28;19921;-89
2022/10/24 01:03:12;;;;;;;;;;;18.50;66.40;;;;;;5031562;28;19928;-87
2022/10/24 01:05:49;;;;;;;;;;;18.70;66.40;;;;;;5031561;28;19921;-87
2022/10/24 01:08:18;;;;;;;;;;;18.70;66.60;;;;;;5029340;28;19913;-88
2022/10/24 01:10:53;;;;;;;;;;;18.80;66.70;;;;;;5030361;28;19921;-90
2022/10/24 01:13:31;;;;;;;;;;;18.80;66.60;;;;;;5029862;28;20402;-89
2022/10/24 01:16:22;;;;;;;;;;;18.90;66.40;;;;;;5036566;28;19967;-88
2022/10/24 01:18:54;;;;;;;;;;;19.00;66.40;;;;;;5017123;28;19948;-88
2022/10/24 01:21:23;;;;;;;;;;;19.00;66.40;;;;;;5026553;28;20002;-90
2022/10/24 01:23:58;;;;;;;;;;;19.00;66.50;;;;;;5029747;28;19923;-87
2022/10/24 01:26:39;;;;;;;;;;;19.10;66.50;;;;;;5017989;28;20526;-89
2022/10/24 01:29:09;;;;;;;;;;;19.10;66.30;;;;;;5021721;28;19913;-88
2022/10/24 01:31:46;;;;;;;;;;;19.20;66.40;;;;;;5029008;28;19984;-87
2022/10/24 01:34:15;;;;;;;;;;;19.20;66.50;;;;;;5027535;28;20442;-88
2022/10/24 01:36:46;;;;;;;;;;;19.20;66.40;;;;;;5022067;28;19922;-87
2022/10/24 01:39:14;;;;;;;;;;;19.30;66.20;;;;;;5013074;28;19913;-88
2022/10/24 01:41:41;;;;;;;;;;;19.30;66.20;;;;;;5026123;28;20391;-87
2022/10/24 01:44:10;;;;;;;;;;;19.30;66.40;;;;;;5031248;28;20411;-90
2022/10/24 01:46:41;;;;;;;;;;;19.40;66.30;;;;;;5030313;28;19920;-88
2022/10/24 01:49:11;;;;;;;;;;;19.40;66.40;;;;;;5031803;28;19920;-89
2022/10/24 01:51:38;;;;;;;;;;;19.40;66.60;;;;;;5030930;28;19932;-87
2022/10/24 01:54:04;;;;;;;;;;;19.50;66.30;;;;;;5033647;28;20074;-87
2022/10/24 01:56:29;;;;;;;;;;;19.50;66.20;;;;;;5031172;28;20395;-89
2022/10/24 01:59:27;;;;;;;;;;;19.60;66.00;;;;;;5031424;28;20543;-89
2022/10/24 02:01:54;;;;;;;;;;;19.60;66.20;;;;;;5031740;28;19956;-88
2022/10/24 02:04:21;;;;;;;;;;;19.60;66.20;;;;;;5031595;28;19919;-89
2022/10/24 02:06:47;;;;;;;;;;;19.70;66.20;;;;;;5029659;28;19925;-89
2022/10/24 02:09:15;;;;;;;;;;;19.70;66.30;;;;;;5030069;28;19909;-87
2022/10/24 02:11:41;;;;;;;;;;;19.70;66.10;;;;;;5030089;28;19970;-87
2022/10/24 02:14:14;;;;;;;;;;;19.80;66.10;;;;;;5030040;28;19909;-88
2022/10/24 02:16:41;;;;;;;;;;;19.80;66.10;;;;;;5032533;28;19924;-90
2022/10/24 02:19:06;;;;;;;;;;;19.80;65.90;;;;;;5031242;28;19964;-88
2022/10/24 02:21:43;;;;;;;;;;;19.80;66.00;;;;;;5038506;28;19917;-89
2022/10/24 02:24:20;;;;;;;;;;;19.80;66.20;;;;;;5033348;28;19943;-89
2022/10/24 02:26:48;;;;;;;;;;;19.80;66.40;;;;;;5032725;28;19940;-88
2022/10/24 02:29:20;;;;;;;;;;;19.80;66.30;;;;;;5031850;28;19960;-88
2022/10/24 02:31:49;;;;;;;;;;;19.90;66.30;;;;;;5013851;28;20422;-87
2022/10/24 02:34:16;;;;;;;;;;;20.00;66.10;;;;;;5027401;28;19909;-89
2022/10/24 02:36:43;;;;;;;;;;;19.90;66.20;;;;;;5035697;28;19924;-87
2022/10/24 02:39:10;;;;;;;;;;;19.90;66.20;;;;;;5034711;28;19913;-88
2022/10/24 02:41:38;;;;;;;;;;;20.00;66.20;;;;;;5033874;28;19968;-90
2022/10/24 02:44:04;;;;;;;;;;;20.00;66.20;;;;;;5033028;28;19909;-89
2022/10/24 02:46:30;;;;;;;;;;;20.10;65.90;;;;;;5033702;28;20279;-88
2022/10/24 02:48:57;;;;;;;;;;;20.10;65.70;;;;;;5033498;28;19956;-87
2022/10/24 02:51:25;;;;;;;;;;;20.10;65.60;;;;;;5035595;28;20403;-88
2022/10/24 02:53:51;;;;;;;;;;;20.20;65.70;;;;;;5051261;28;19909;-89
2022/10/24 02:56:16;;;;;;;;;;;20.10;65.60;;;;;;5053797;28;20329;-89
2022/10/24 02:58:42;;;;;;;;;;;20.10;65.60;;;;;;5054747;28;19943;-89
2022/10/24 03:01:07;;;;;;;;;;;20.10;65.50;;;;;;5039032;28;19917;-88
2022/10/24 03:03:33;;;;;;;;;;;20.10;65.20;;;;;;5035801;28;19912;-88
2022/10/24 03:05:59;;;;;;;;;;;20.10;65.30;;;;;;5035791;28;20594;-88
2022/10/24 03:08:24;;;;;;;;;;;20.00;65.30;;;;;;5035037;28;20352;-89
2022/10/24 03:10:50;;;;;;;;;;;20.00;65.10;;;;;;5034687;28;19917;-89
2022/10/24 03:13:15;;;;;;;;;;;20.00;65.10;;;;;;5033184;28;20353;-88
2022/10/24 03:15:41;;;;;;;;;;;20.00;65.10;;;;;;5034305;28;19984;-88
2022/10/24 03:18:06;;;;;;;;;;;20.00;65.30;;;;;;5034783;28;19909;-88
2022/10/24 03:20:32;;;;;;;;;;;20.00;65.60;;;;;;5037140;28;19924;-88
2022/10/24 03:22:57;;;;;;;;;;;20.00;65.80;;;;;;5035817;28;19925;-88
2022/10/24 03:25:23;;;;;;;;;;;20.10;65.80;;;;;;5032809;28;19924;-89
2022/10/24 03:27:48;;;;;;;;;;;20.10;66.00;;;;;;5034512;28;19913;-88
2022/10/24 03:30:14;;;;;;;;;;;20.20;65.60;;;;;;5035904;28;19963;-88
2022/10/24 03:32:39;;;;;;;;;;;20.20;65.80;;;;;;5016287;28;19909;-88
2022/10/24 03:35:05;;;;;;;;;;;20.30;65.50;;;;;;5036667;28;19909;-90
2022/10/24 03:37:31;;;;;;;;;;;20.30;65.70;;;;;;5035083;28;19936;-87
2022/10/24 03:39:56;;;;;;;;;;;20.30;65.70;;;;;;5035691;28;19909;-88
2022/10/24 03:42:22;;;;;;;;;;;20.20;65.60;;;;;;5033169;28;20055;-89
2022/10/24 03:44:47;;;;;;;;;;;20.30;65.40;;;;;;5033352;28;19909;-89
2022/10/24 03:47:13;;;;;;;;;;;20.30;65.50;;;;;;5027002;28;19933;-90
2022/10/24 03:49:38;;;;;;;;;;;20.30;65.30;;;;;;5030745;28;19921;-87
2022/10/24 03:52:04;;;;;;;;;;;20.30;65.30;;;;;;5029054;28;19917;-89
2022/10/24 03:54:30;;;;;;;;;;;20.30;65.00;;;;;;5028061;28;19913;-89
2022/10/24 03:56:55;;;;;;;;;;;20.30;65.20;;;;;;5033780;28;19928;-90
2022/10/24 03:59:21;;;;;;;;;;;20.30;65.00;;;;;;5013680;28;21253;-90
2022/10/24 04:01:46;;;;;;;;;;;20.30;64.90;;;;;;5014846;28;20003;-88
2022/10/24 04:04:12;;;;;;;;;;;20.30;64.70;;;;;;5031133;28;19973;-88
2022/10/24 04:06:38;;;;;;;;;;;20.30;64.70;;;;;;5031295;28;19925;-90
2022/10/24 04:09:04;;;;;;;;;;;20.30;64.80;;;;;;5032742;28;20003;-89
2022/10/24 04:11:30;;;;;;;;;;;20.30;64.70;;;;;;5033128;28;19957;-90
2022/10/24 04:13:55;;;;;;;;;;;20.30;64.80;;;;;;5011422;28;19955;-89
2022/10/24 04:16:22;;;;;;;;;;;20.30;64.60;;;;;;5011726;28;19925;-88
2022/10/24 04:18:48;;;;;;;;;;;20.30;64.80;;;;;;5011092;28;19913;-89
2022/10/24 04:21:14;;;;;;;;;;;20.30;64.80;;;;;;5028812;28;20267;-89
2022/10/24 04:23:41;;;;;;;;;;;20.20;64.90;;;;;;5013889;28;19940;-88
2022/10/24 04:26:07;;;;;;;;;;;20.30;64.80;;;;;;5009846;28;19933;-89
2022/10/24 04:28:33;;;;;;;;;;;20.30;64.70;;;;;;5015095;28;19982;-89
2022/10/24 04:30:59;;;;;;;;;;;20.30;64.80;;;;;;5012684;28;19929;-88
2022/10/24 04:33:24;;;;;;;;;;;20.30;64.80;;;;;;5033753;28;19996;-89
2022/10/24 04:35:50;;;;;;;;;;;20.30;64.60;;;;;;5032870;28;20059;-88
2022/10/24 04:38:16;;;;;;;;;;;20.30;64.60;;;;;;5033806;28;20058;-88
2022/10/24 04:40:48;;;;;;;;;;;20.30;64.80;;;;;;5030652;28;19917;-89
2022/10/24 04:43:14;;;;;;;;;;;20.30;64.60;;;;;;5013133;28;19913;-87
2022/10/24 04:45:40;;;;;;;;;;;20.30;64.50;;;;;;5012047;28;19921;-89
2022/10/24 04:48:05;;;;;;;;;;;20.30;65.00;;;;;;5011430;28;19913;-88
2022/10/24 04:50:31;;;;;;;;;;;20.30;65.10;;;;;;5009930;28;19917;-87
2022/10/24 04:52:56;;;;;;;;;;;20.30;64.90;;;;;;5030012;28;20028;-86
2022/10/24 04:55:22;;;;;;;;;;;20.50;64.90;;;;;;5011470;28;19924;-88
2022/10/24 04:57:47;;;;;;;;;;;20.50;64.60;;;;;;5013969;28;20322;-88
2022/10/24 05:00:13;;;;;;;;;;;20.60;64.60;;;;;;5013383;28;20016;-88
2022/10/24 05:02:39;;;;;;;;;;;20.50;64.30;;;;;;5013109;28;20008;-89
2022/10/24 05:05:05;;;;;;;;;;;20.60;64.60;;;;;;5011710;28;20364;-88
2022/10/24 05:07:30;;;;;;;;;;;20.60;64.40;;;;;;5029310;28;20143;-88
2022/10/24 05:09:56;;;;;;;;;;;20.60;63.60;;;;;;5017058;28;19914;-89
2022/10/24 05:12:21;;;;;;;;;;;20.60;64.00;;;;;;5011381;28;19913;-88
2022/10/24 05:14:47;;;;;;;;;;;20.60;63.90;;;;;;5011858;28;19913;-89
2022/10/24 05:17:13;;;;;;;;;;;20.60;64.00;;;;;;5011581;28;19913;-88
2022/10/24 05:19:39;;;;;;;;;;;20.60;63.80;;;;;;5025381;28;19928;-89
2022/10/24 05:22:04;;;;;;;;;;;20.60;63.70;;;;;;5034601;28;19936;-88
2022/10/24 05:24:30;;;;;;;;;;;20.70;63.80;;;;;;5055593;28;20309;-89
2022/10/24 05:26:56;;;;;;;;;;;20.70;63.90;;;;;;5052199;28;20279;-88
2022/10/24 05:29:21;;;;;;;;;;;20.70;63.80;;;;;;5034047;28;19935;-87
2022/10/24 05:31:47;;;;;;;;;;;20.70;63.70;;;;;;5034277;28;20311;-90
2022/10/24 05:34:13;;;;;;;;;;;20.70;63.70;;;;;;5022580;28;19921;-89
2022/10/24 05:36:38;;;;;;;;;;;20.70;63.60;;;;;;5032228;28;19921;-88
2022/10/24 05:39:04;;;;;;;;;;;20.70;63.60;;;;;;5014296;28;20287;-89
2022/10/24 05:41:31;;;;;;;;;;;20.60;63.40;;;;;;5014448;28;19979;-89
2022/10/24 05:43:57;;;;;;;;;;;20.70;63.40;;;;;;5014154;28;19959;-89
2022/10/24 05:46:23;;;;;;;;;;;20.70;63.40;;;;;;5031822;28;20368;-87
2022/10/24 05:48:48;;;;;;;;;;;20.60;63.10;;;;;;5031445;28;19955;-89
2022/10/24 05:51:14;;;;;;;;;;;20.60;63.10;;;;;;5014660;28;19960;-89
2022/10/24 05:53:40;;;;;;;;;;;20.70;63.50;;;;;;5013759;28;19921;-89
2022/10/24 05:56:06;;;;;;;;;;;20.60;63.20;;;;;;5020491;28;19920;-88
2022/10/24 05:58:31;;;;;;;;;;;20.70;63.40;;;;;;5035753;28;20267;-88
2022/10/24 06:00:57;;;;;;;;;;;20.70;62.90;;;;;;5051299;28;19917;-87
2022/10/24 06:03:22;;;;;;;;;;;20.70;63.10;;;;;;5051497;28;19967;-89
2022/10/24 06:05:49;;;;;;;;;;;20.70;63.00;;;;;;5051543;28;19928;-89
2022/10/24 06:08:14;;;;;;;;;;;20.70;62.80;;;;;;5019260;28;19921;-88
2022/10/24 06:10:40;;;;;;;;;;;20.70;62.30;;;;;;5016977;28;20317;-90
2022/10/24 06:13:06;;;;;;;;;;;20.70;62.70;;;;;;5033655;28;20244;-89
2022/10/24 06:15:31;;;;;;;;;;;20.70;62.60;;;;;;5051315;28;19956;-89
2022/10/24 06:17:57;;;;;;;;;;;20.70;62.50;;;;;;5019476;28;19909;-88
2022/10/24 06:20:23;;;;;;;;;;;20.80;62.70;;;;;;5021688;28;19921;-89
2022/10/24 06:22:48;;;;;;;;;;;20.80;62.90;;;;;;5044481;28;19917;-89
2022/10/24 06:25:14;;;;;;;;;;;20.70;62.60;;;;;;5033461;28;19925;-89
2022/10/24 06:27:40;;;;;;;;;;;20.70;62.00;;;;;;5042509;28;19917;-90
2022/10/24 06:30:06;;;;;;;;;;;20.70;62.40;;;;;;5037109;28;19909;-90
2022/10/24 06:32:31;;;;;;;;;;;20.80;62.30;;;;;;5024574;28;20344;-89
2022/10/24 06:34:57;;;;;;;;;;;20.80;62.40;;;;;;5035034;28;19921;-88
2022/10/24 06:37:23;;;;;;;;;;;20.80;62.10;;;;;;5032963;28;19913;-88
2022/10/24 06:39:48;;;;;;;;;;;20.80;61.50;;;;;;5045937;28;19909;-88
2022/10/24 06:42:14;;;;;;;;;;;20.80;61.50;;;;;;5031446;28;19921;-89
2022/10/24 06:44:39;;;;;;;;;;;21.00;62.10;;;;;;5018489;28;19924;-90
2022/10/24 06:47:05;;;;;;;;;;;21.10;62.10;;;;;;5033856;28;19983;-89
2022/10/24 06:49:31;;;;;;;;;;;21.10;61.50;;;;;;5033248;28;20280;-88
2022/10/24 06:51:56;;;;;;;;;;;21.20;61.10;;;;;;5032476;28;19913;-89
2022/10/24 06:54:22;;;;;;;;;;;21.30;61.80;;;;;;5051436;28;20410;-88
2022/10/24 06:56:48;;;;;;;;;;;21.50;61.90;;;;;;5033421;28;19927;-88
2022/10/24 06:59:14;;;;;;;;;;;21.70;61.40;;;;;;5050637;28;19909;-89
2022/10/24 07:01:40;;;;;;;;;;;21.70;60.20;;;;;;5033154;28;19921;-88
2022/10/24 07:04:06;;;;;;;;;;;21.90;60.40;;;;;;5032888;28;20038;-88
2022/10/24 07:06:32;;;;;;;;;;;22.20;60.70;;;;;;5051761;28;20036;-88
2022/10/24 07:08:59;;;;;;;;;;;22.30;60.30;;;;;;5035087;28;19944;-88
2022/10/24 07:11:25;;;;;;;;;;;22.40;59.40;;;;;;5032910;28;19924;-89
2022/10/24 07:13:51;;;;;;;;;;;22.40;58.10;;;;;;5054902;28;19951;-88
2022/10/24 07:16:17;;;;;;;;;;;22.60;58.40;;;;;;5054920;28;19952;-88
2022/10/24 07:18:43;;;;;;;;;;;22.80;58.90;;;;;;5036428;28;20003;-88
2022/10/24 07:21:18;;;;;;;;;;;23.10;58.30;;;;;;5055577;28;19920;-88
2022/10/24 07:23:44;;;;;;;;;;;23.20;57.70;;;;;;5035444;28;20344;-89
2022/10/24 07:26:11;;;;;;;;;;;23.40;56.90;;;;;;5029234;28;19967;-89
2022/10/24 07:28:38;;;;;;;;;;;23.70;57.20;;;;;;5034535;28;19936;-88
2022/10/24 07:31:04;;;;;;;;;;;23.70;55.20;;;;;;5034604;28;20354;-88
2022/10/24 07:33:30;;;;;;;;;;;23.80;54.30;;;;;;5051925;28;19932;-89
2022/10/24 07:35:55;;;;;;;;;;;23.90;53.80;;;;;;5050499;28;19912;-90
2022/10/24 07:38:21;;;;;;;;;;;24.20;54.00;;;;;;5033251;28;20495;-88
2022/10/24 07:40:47;;;;;;;;;;;24.20;53.60;;;;;;5034179;28;19955;-89
2022/10/24 07:43:12;;;;;;;;;;;24.30;51.80;;;;;;5033957;28;19966;-89
2022/10/24 07:45:38;;;;;;;;;;;24.30;51.30;;;;;;5031966;28;19928;-89
2022/10/24 07:48:07;;;;;;;;;;;24.40;51.40;;;;;;5032752;28;19924;-88
2022/10/24 07:50:34;;;;;;;;;;;24.40;51.00;;;;;;5034102;28;19919;-89
2022/10/24 07:52:59;;;;;;;;;;;24.40;50.20;;;;;;5035099;28;19925;-90
2022/10/24 07:55:25;;;;;;;;;;;24.70;50.70;;;;;;5034131;28;20023;-90
2022/10/24 07:58:01;;;;;;;;;;;24.90;50.00;;;;;;5012968;28;20004;-89
2022/10/24 08:00:27;;;;;;;;;;;25.10;49.10;;;;;;5014323;28;20099;-89
2022/10/24 08:03:02;;;;;;;;;;;25.20;47.90;;;;;;5013188;28;19928;-89
2022/10/24 08:05:28;;;;;;;;;;;25.50;48.20;;;;;;5014816;28;19928;-89
2022/10/24 08:07:54;;;;;;;;;;;25.50;46.70;;;;;;5012844;28;19925;-89
2022/10/24 08:10:20;;;;;;;;;;;25.70;47.60;;;;;;5013871;28;19917;-89
2022/10/24 08:12:46;;;;;;;;;;;25.70;47.00;;;;;;5033447;28;20440;-89
2022/10/24 08:15:11;;;;;;;;;;;25.80;47.10;;;;;;5015306;28;19925;-91
2022/10/24 08:17:37;;;;;;;;;;;25.90;46.40;;;;;;5012654;28;19913;-88
2022/10/24 08:20:04;;;;;;;;;;;25.90;44.20;;;;;;5014152;28;19921;-88
2022/10/24 08:22:29;;;;;;;;;;;26.10;45.90;;;;;;5013050;28;20379;-89
2022/10/24 08:24:55;;;;;;;;;;;26.30;46.20;;;;;;5011727;28;20383;-89
2022/10/24 08:27:21;;;;;;;;;;;26.60;46.50;;;;;;5013995;28;20016;-89
2022/10/24 08:29:47;;;;;;;;;;;26.80;45.40;;;;;;5013048;28;19928;-87
2022/10/24 08:32:12;;;;;;;;;;;27.00;45.50;;;;;;5034579;28;19913;-88
2022/10/24 08:34:40;;;;;;;;;;;27.20;43.50;;;;;;5013409;28;19928;-90
2022/10/24 08:37:06;;;;;;;;;;;27.40;43.20;;;;;;5034200;28;19975;-90
2022/10/24 08:39:32;;;;;;;;;;;27.70;43.50;;;;;;5012166;28;19929;-88
2022/10/24 08:42:01;;;;;;;;;;;28.20;43.50;;;;;;5032923;28;19920;-89
2022/10/24 08:44:35;;;;;;;;;;;28.50;41.90;;;;;;5012158;28;19947;-89
2022/10/24 08:47:01;;;;;;;;;;;28.80;41.40;;;;;;5030191;28;19920;-89
2022/10/24 08:49:30;;;;;;;;;;;29.00;40.30;;;;;;5030410;28;19928;-88
2022/10/24 08:52:00;;;;;;;;;;;29.20;40.90;;;;;;5011377;28;19928;-89
2022/10/24 08:54:30;;;;;;;;;;;29.50;39.60;;;;;;5031989;28;19921;-88
2022/10/24 08:56:58;;;;;;;;;;;29.80;39.90;;;;;;5030422;28;20364;-88
2022/10/24 08:59:25;;;;;;;;;;;29.80;38.40;;;;;;5011951;28;19931;-89
2022/10/24 09:02:11;;;;;;;;;;;29.80;37.70;;;;;;5012271;28;19913;-88
2022/10/24 09:04:44;;;;;;;;;;;29.40;37.10;;;;;;5028451;28;19921;-89
2022/10/24 09:07:14;;;;;;;;;;;29.20;37.30;;;;;;5034627;28;19931;-89
2022/10/24 09:09:45;;;;;;;;;;;29.20;38.60;;;;;;5051653;28;19916;-88
2022/10/24 09:12:15;;;;;;;;;;;29.10;38.00;;;;;;5030569;28;19916;-87
2022/10/24 09:14:42;;;;;;;;;;;29.10;38.10;;;;;;5030758;28;19917;-89
2022/10/24 09:17:15;;;;;;;;;;;29.20;37.60;;;;;;5046481;28;20405;-88
2022/10/24 09:19:44;;;;;;;;;;;29.40;37.50;;;;;;5008745;28;20348;-90
2022/10/24 09:22:10;;;;;;;;;;;29.70;36.30;;;;;;5012416;28;20288;-89
2022/10/24 09:24:40;;;;;;;;;;;29.80;36.00;;;;;;4992808;28;20299;-88
2022/10/24 09:27:09;;;;;;;;;;;30.10;36.10;;;;;;4993272;28;20555;-87
2022/10/24 09:29:35;;;;;;;;;;;30.30;34.60;;;;;;5009577;28;19924;-88
2022/10/24 09:32:01;;;;;;;;;;;30.20;34.20;;;;;;5009565;28;19918;-88
2022/10/24 09:34:27;;;;;;;;;;;29.90;34.00;;;;;;5023010;28;19924;-87
2022/10/24 09:36:53;;;;;;;;;;;29.40;33.90;;;;;;5031861;28;19917;-89
2022/10/24 09:39:24;;;;;;;;;;;29.30;34.70;;;;;;5030645;28;19924;-89
2022/10/24 09:41:49;;;;;;;;;;;29.10;34.70;;;;;;5029758;28;19932;-87
2022/10/24 09:44:32;;;;;;;;;;;28.70;35.30;;;;;;5033904;28;19929;-87
2022/10/24 09:46:58;;;;;;;;;;;28.40;35.70;;;;;;5028841;28;19956;-88
2022/10/24 09:49:30;;;;;;;;;;;28.10;36.50;;;;;;5028776;28;19917;-88
2022/10/24 09:52:05;;;;;;;;;;;27.90;37.00;;;;;;5012836;28;19917;-89
2022/10/24 09:54:31;;;;;;;;;;;27.60;37.10;;;;;;5033607;28;20471;-88
2022/10/24 09:57:05;;;;;;;;;;;27.40;37.40;;;;;;5025814;28;19921;-90
2022/10/24 09:59:32;;;;;;;;;;;27.10;37.40;;;;;;5032206;28;20615;-89
2022/10/24 10:02:13;;;;;;;;;;;27.00;37.80;;;;;;5032416;28;19924;-88
2022/10/24 10:04:40;;;;;;;;;;;26.80;37.90;;;;;;5034075;28;19974;-89
2022/10/24 10:07:10;;;;;;;;;;;26.60;38.20;;;;;;5050495;28;19921;-89
2022/10/24 10:09:41;;;;;;;;;;;26.40;38.50;;;;;;5048545;28;19943;-89
2022/10/24 10:12:23;;;;;;;;;;;26.30;39.10;;;;;;5031658;28;19912;-89
2022/10/24 10:14:50;;;;;;;;;;;26.20;39.00;;;;;;5031739;28;19983;-90
2022/10/24 10:17:24;;;;;;;;;;;26.10;39.00;;;;;;5050562;28;20375;-91
2022/10/24 10:19:50;;;;;;;;;;;26.10;39.20;;;;;;5050204;28;19968;-89
2022/10/24 10:22:33;;;;;;;;;;;26.10;39.50;;;;;;5048830;28;20026;-88
2022/10/24 10:24:59;;;;;;;;;;;26.00;39.80;;;;;;5030866;28;19971;-90
2022/10/24 10:27:35;;;;;;;;;;;26.00;39.80;;;;;;5050285;28;19920;-88
2022/10/24 10:30:10;;;;;;;;;;;25.90;39.90;;;;;;5051296;28;19968;-90
2022/10/24 10:32:42;;;;;;;;;;;25.90;39.70;;;;;;5031014;28;19956;-88
2022/10/24 10:35:18;;;;;;;;;;;25.90;39.60;;;;;;5050711;28;19921;-89
2022/10/24 10:37:48;;;;;;;;;;;25.80;39.40;;;;;;5050099;28;20772;-90
2022/10/24 10:40:21;;;;;;;;;;;25.80;39.50;;;;;;5034629;28;20323;-87
2022/10/24 10:43:01;;;;;;;;;;;25.80;39.70;;;;;;5035623;28;19913;-88
2022/10/24 10:45:46;;;;;;;;;;;25.80;39.50;;;;;;5031888;28;20295;-90
2022/10/24 10:48:21;;;;;;;;;;;25.80;39.90;;;;;;5053048;28;19917;-89
2022/10/24 10:50:50;;;;;;;;;;;25.70;39.20;;;;;;5036992;28;19917;-89
2022/10/24 10:53:15;;;;;;;;;;;25.70;39.60;;;;;;5053657;28;19908;-87
2022/10/24 10:55:46;;;;;;;;;;;25.60;39.90;;;;;;5031937;28;20537;-90
2022/10/24 10:58:15;;;;;;;;;;;25.50;40.60;;;;;;5014658;28;19959;-89
2022/10/24 11:00:53;;;;;;;;;;;25.30;41.60;;;;;;5032956;28;19921;-88
2022/10/24 11:03:25;;;;;;;;;;;25.10;42.70;;;;;;5015128;28;20022;-88
2022/10/24 11:06:03;;;;;;;;;;;24.80;43.70;;;;;;5014339;28;19992;-89
2022/10/24 11:08:41;;;;;;;;;;;24.70;44.40;;;;;;5032483;28;19975;-87
2022/10/24 11:11:11;;;;;;;;;;;25.00;44.60;;;;;;5032272;28;20698;-90
2022/10/24 11:13:42;;;;;;;;;;;25.20;44.00;;;;;;5033076;28;19939;-88
2022/10/24 11:16:12;;;;;;;;;;;25.50;43.60;;;;;;5017079;28;19917;-85
2022/10/24 11:18:41;;;;;;;;;;;25.70;43.40;;;;;;5031639;28;20430;-91
2022/10/24 11:21:14;;;;;;;;;;;25.80;43.10;;;;;;5032752;28;20605;-90
2022/10/24 11:23:46;;;;;;;;;;;25.90;42.30;;;;;;5016354;28;20604;-89
2022/10/24 11:26:15;;;;;;;;;;;26.00;42.30;;;;;;5033627;28;19921;-89
2022/10/24 11:28:45;;;;;;;;;;;26.00;42.10;;;;;;5014102;28;19924;-90
2022/10/24 11:31:21;;;;;;;;;;;26.00;41.20;;;;;;5013351;28;20000;-88
2022/10/24 11:33:56;;;;;;;;;;;25.80;40.50;;;;;;5013875;28;19917;-88
2022/10/24 11:36:30;;;;;;;;;;;25.70;40.90;;;;;;5016279;28;19960;-89
2022/10/24 11:39:02;;;;;;;;;;;25.50;40.80;;;;;;5015537;28;19920;-88
2022/10/24 11:41:42;;;;;;;;;;;25.40;40.90;;;;;;5031478;28;19917;-88
2022/10/24 11:44:24;;;;;;;;;;;25.30;41.00;;;;;;5032567;28;19980;-89
2022/10/24 11:46:53;;;;;;;;;;;25.30;41.20;;;;;;5031634;28;19976;-89
2022/10/24 11:49:19;;;;;;;;;;;25.10;41.10;;;;;;5013695;28;19920;-88
2022/10/24 11:51:49;;;;;;;;;;;25.20;41.30;;;;;;5043926;28;20423;-89
2022/10/24 11:54:17;;;;;;;;;;;25.10;41.60;;;;;;5031904;28;20526;-89
2022/10/24 11:56:49;;;;;;;;;;;25.10;41.30;;;;;;5051349;28;19921;-90
2022/10/24 11:59:18;;;;;;;;;;;25.10;41.50;;;;;;5034424;28;20011;-88
2022/10/24 12:01:53;;;;;;;;;;;25.20;41.80;;;;;;5037348;28;19944;-88
2022/10/24 12:04:31;;;;;;;;;;;25.20;41.40;;;;;;5033404;28;19921;-89
2022/10/24 12:07:15;;;;;;;;;;;25.20;41.20;;;;;;5032942;28;19972;-88
2022/10/24 12:10:02;;;;;;;;;;;25.30;41.50;;;;;;5053451;28;19917;-90
2022/10/24 12:12:37;;;;;;;;;;;25.50;41.30;;;;;;5032677;28;19917;-89
2022/10/24 12:15:08;;;;;;;;;;;25.50;40.60;;;;;;5050779;28;20594;-88
2022/10/24 12:17:46;;;;;;;;;;;25.50;40.80;;;;;;5024078;28;20011;-87
2022/10/24 12:20:15;;;;;;;;;;;25.40;40.70;;;;;;5032412;28;19921;-86
2022/10/24 12:22:41;;;;;;;;;;;25.20;41.30;;;;;;5013302;28;19913;-87
2022/10/24 12:25:13;;;;;;;;;;;25.20;41.70;;;;;;5029982;28;20016;-89
2022/10/24 12:27:40;;;;;;;;;;;25.30;41.30;;;;;;5039641;28;19936;-90
2022/10/24 12:30:09;;;;;;;;;;;25.30;40.80;;;;;;5019407;28;19921;-88
2022/10/24 12:32:49;;;;;;;;;;;25.40;40.50;;;;;;5033304;28;19909;-91
2022/10/24 12:35:34;;;;;;;;;;;25.30;40.40;;;;;;5011870;28;19928;-90
2022/10/24 12:38:13;;;;;;;;;;;25.30;40.40;;;;;;5010438;28;19917;-89
2022/10/24 12:40:51;;;;;;;;;;;25.40;40.10;;;;;;4992791;28;19925;-89
2022/10/24 12:43:29;;;;;;;;;;;25.50;40.30;;;;;;4992653;28;19917;-90
2022/10/24 12:45:55;;;;;;;;;;;25.40;40.10;;;;;;5026779;28;19921;-90
2022/10/24 12:48:29;;;;;;;;;;;25.30;40.00;;;;;;5011491;28;19956;-88
2022/10/24 12:50:55;;;;;;;;;;;25.30;40.50;;;;;;5011341;28;20550;-88
2022/10/24 12:53:30;;;;;;;;;;;25.30;40.80;;;;;;5012681;28;20032;-91
2022/10/24 12:55:59;;;;;;;;;;;25.30;40.90;;;;;;5012409;28;19976;-90
2022/10/24 12:58:27;;;;;;;;;;;25.00;43.70;;;;;;5013927;28;19913;-90
2022/10/24 13:00:54;;;;;;;;;;;24.50;48.10;;;;;;5029776;28;19921;-89
2022/10/24 13:03:21;;;;;;;;;;;24.10;51.40;;;;;;5031122;28;19921;-88
2022/10/24 13:05:56;;;;;;;;;;;23.80;53.00;;;;;;5011686;28;19921;-89
2022/10/24 13:08:25;;;;;;;;;;;23.60;54.10;;;;;;5031287;28;20011;-87
2022/10/24 13:11:29;;;;;;;;;;;23.50;55.90;;;;;;5029348;28;19928;-90
2022/10/24 13:13:57;;;;;;;;;;;23.50;56.30;;;;;;4915345;29;19970;-89
2022/10/24 13:16:41;;;;;;;;;;;23.40;56.00;;;;;;4934750;29;20079;-90
2022/10/24 13:19:15;;;;;;;;;;;23.40;56.40;;;;;;4989942;28;20415;-89
2022/10/24 13:21:54;;;;;;;;;;;23.30;56.30;;;;;;4995429;28;20367;-91
2022/10/24 13:24:20;;;;;;;;;;;23.20;56.50;;;;;;5011470;28;19922;-90
2022/10/24 13:27:10;;;;;;;;;;;23.30;56.80;;;;;;5012096;28;20423;-88
2022/10/24 13:29:35;;;;;;;;;;;23.40;57.00;;;;;;4993287;28;19970;-88
2022/10/24 13:32:04;;;;;;;;;;;23.50;56.70;;;;;;5008783;28;20356;-88
2022/10/24 13:34:43;;;;;;;;;;;23.50;56.70;;;;;;5023218;28;19928;-90
2022/10/24 13:37:08;;;;;;;;;;;23.40;55.40;;;;;;5031675;28;19920;-88
2022/10/24 13:39:36;;;;;;;;;;;23.40;55.00;;;;;;5029962;28;19921;-89
2022/10/24 13:42:05;;;;;;;;;;;23.60;55.00;;;;;;5011589;28;19913;-89
2022/10/24 13:44:33;;;;;;;;;;;23.70;55.10;;;;;;5028744;28;20016;-90
2022/10/24 13:47:17;;;;;;;;;;;23.80;55.00;;;;;;5032213;28;19917;-88
2022/10/24 13:50:04;;;;;;;;;;;23.90;54.70;;;;;;5029307;28;19929;-89
2022/10/24 13:52:44;;;;;;;;;;;24.00;53.70;;;;;;5011332;28;19921;-89
2022/10/24 13:55:10;;;;;;;;;;;24.00;53.70;;;;;;5011562;28;19940;-87
2022/10/24 13:57:48;;;;;;;;;;;24.00;52.80;;;;;;5034778;28;19916;-88
2022/10/24 14:00:24;;;;;;;;;;;24.00;52.10;;;;;;5032892;28;19921;-90
2022/10/24 14:02:50;;;;;;;;;;;23.80;51.70;;;;;;5030779;28;19936;-88
2022/10/24 14:05:28;;;;;;;;;;;23.90;52.40;;;;;;5011031;28;19921;-89
2022/10/24 14:07:54;;;;;;;;;;;23.90;53.40;;;;;;5030369;28;19921;-88
2022/10/24 14:10:20;;;;;;;;;;;23.90;52.70;;;;;;5028476;28;20020;-90
2022/10/24 14:12:49;;;;;;;;;;;23.90;52.60;;;;;;5029289;28;20616;-89
2022/10/24 14:15:16;;;;;;;;;;;23.70;51.40;;;;;;5030926;28;19924;-91
2022/10/24 14:17:51;;;;;;;;;;;23.70;51.00;;;;;;5031013;28;19921;-89
2022/10/24 14:20:25;;;;;;;;;;;23.70;52.10;;;;;;5028770;28;20029;-89
2022/10/24 14:22:51;;;;;;;;;;;23.70;52.30;;;;;;5031977;28;20011;-87
2022/10/24 14:25:26;;;;;;;;;;;23.70;53.10;;;;;;5034009;28;20004;-89
2022/10/24 14:27:52;;;;;;;;;;;23.70;52.40;;;;;;5016665;28;20339;-90